Time;durP1;ratioP1;P1;durP2;ratioP2;P2;SDS_P1;SDS_P2;PMS_P1;PMS_P2;Temp;Humidity;BMP_temperature;BMP_pressure;BME280_temperature;BME280_humidity;BME280_pressure;Samples;Min_cycle;Max_cycle;Signal;HPM_P1;HPM_P2
2022/01/07 00:01:24;;;;;;;8.45;5.20;;;;;;;4.97;63.35;101831.66;5030969;28;20046;-76
2022/01/07 00:03:51;;;;;;;7.32;4.45;;;;;;;4.92;63.51;101830.88;5032805;28;20546;-71
2022/01/07 00:06:19;;;;;;;7.75;4.72;;;;;;;4.93;63.17;101826.50;5032860;28;20045;-75
2022/01/07 00:08:46;;;;;;;8.50;5.55;;;;;;;4.85;63.41;101819.72;5032227;28;20041;-73
2022/01/07 00:11:12;;;;;;;13.27;5.40;;;;;;;4.78;63.58;101831.06;5032683;28;20103;-77
2022/01/07 00:13:39;;;;;;;7.65;5.32;;;;;;;4.74;63.26;101830.25;5032746;28;20049;-76
2022/01/07 00:16:06;;;;;;;6.38;5.22;;;;;;;4.70;63.32;101832.94;5032542;28;20046;-77
2022/01/07 00:18:33;;;;;;;8.52;5.97;;;;;;;4.65;63.53;101825.19;5032547;28;20167;-68
2022/01/07 00:21:00;;;;;;;8.05;5.65;;;;;;;4.62;63.21;101819.19;5032166;28;20041;-76
2022/01/07 00:23:27;;;;;;;8.68;5.30;;;;;;;4.59;63.18;101825.28;5032608;28;20499;-76
2022/01/07 00:25:54;;;;;;;8.27;5.00;;;;;;;4.58;63.10;101826.16;5031200;28;20057;-67
2022/01/07 00:28:20;;;;;;;6.93;4.70;;;;;;;4.56;63.32;101822.75;5032435;28;20411;-68
2022/01/07 00:30:47;;;;;;;7.18;4.70;;;;;;;4.57;63.20;101827.03;5032104;28;20495;-76
2022/01/07 00:33:14;;;;;;;6.55;5.13;;;;;;;4.55;63.29;101821.00;5032090;28;20041;-76
2022/01/07 00:35:42;;;;;;;6.20;4.60;;;;;;;4.50;63.52;101831.47;5032221;28;20099;-77
2022/01/07 00:38:08;;;;;;;6.35;4.95;;;;;;;4.51;63.43;101834.94;5032162;28;20045;-75
2022/01/07 00:40:35;;;;;;;6.40;5.10;;;;;;;4.49;63.53;101831.50;5031047;28;20065;-76
2022/01/07 00:43:02;;;;;;;7.35;5.57;;;;;;;4.50;63.38;101836.66;5031961;28;20049;-72
2022/01/07 00:45:30;;;;;;;6.97;5.43;;;;;;;4.51;63.54;101840.16;5032116;28;20045;-71
2022/01/07 00:47:57;;;;;;;9.25;5.80;;;;;;;4.58;63.55;101839.16;5032018;28;20054;-75
2022/01/07 00:50:27;;;;;;;8.15;5.50;;;;;;;4.59;63.50;101840.88;5031966;28;20041;-76
2022/01/07 00:52:53;;;;;;;8.65;6.03;;;;;;;4.62;63.51;101840.84;5032051;28;20099;-68
2022/01/07 00:55:21;;;;;;;9.27;6.10;;;;;;;4.64;63.49;101840.81;5032041;28;20049;-76
2022/01/07 00:57:48;;;;;;;8.88;5.78;;;;;;;4.66;63.43;101842.53;5031136;28;20495;-76
2022/01/07 01:00:18;;;;;;;7.25;4.78;;;;;;;4.67;63.46;101841.66;5031981;28;20053;-75
2022/01/07 01:02:46;;;;;;;6.63;4.78;;;;;;;4.69;63.50;101844.22;5032077;28;20049;-75
2022/01/07 01:05:14;;;;;;;5.82;4.50;;;;;;;4.67;63.44;101841.66;5031693;28;20037;-76
2022/01/07 01:07:41;;;;;;;5.47;4.03;;;;;;;4.67;63.54;101841.66;5032260;28;20049;-76
2022/01/07 01:10:09;;;;;;;6.68;4.13;;;;;;;4.67;63.35;101852.06;5036153;28;20123;-76
2022/01/07 01:12:40;;;;;;;5.18;3.60;;;;;;;4.68;63.54;101855.50;5035952;28;20041;-76
2022/01/07 01:15:11;;;;;;;6.30;3.53;;;;;;;4.68;63.48;101864.13;5035006;28;20053;-72
2022/01/07 01:17:38;;;;;;;6.50;4.53;;;;;;;4.71;63.48;101866.72;5035754;28;20392;-76
2022/01/07 01:20:07;;;;;;;7.47;5.28;;;;;;;4.72;63.38;101858.03;5035804;28;20565;-68
2022/01/07 01:22:34;;;;;;;6.25;4.53;;;;;;;4.71;63.55;101868.44;5035776;28;20087;-67
2022/01/07 01:25:02;;;;;;;8.93;5.38;;;;;;;4.70;63.49;101858.94;5035878;28;20094;-75
2022/01/07 01:27:28;;;;;;;6.95;4.50;;;;;;;4.70;63.23;101857.19;5035703;28;20041;-76
2022/01/07 01:29:55;;;;;;;6.13;4.38;;;;;;;4.67;63.44;101854.66;5035720;28;20045;-76
2022/01/07 01:32:22;;;;;;;5.07;3.85;;;;;;;4.66;63.51;101858.13;5034635;28;20049;-76
2022/01/07 01:34:48;;;;;;;5.07;3.67;;;;;;;4.66;63.46;101852.03;5035272;28;20083;-68
2022/01/07 01:37:15;;;;;;;5.32;3.67;;;;;;;4.68;63.33;101855.50;5035677;28;20041;-72
2022/01/07 01:39:42;;;;;;;5.35;3.33;;;;;;;4.66;63.16;101855.53;5035261;28;20100;-68
2022/01/07 01:42:08;;;;;;;6.05;3.50;;;;;;;4.66;63.14;101862.44;5035485;28;20046;-74
2022/01/07 01:44:35;;;;;;;6.10;3.60;;;;;;;4.63;63.16;101858.16;5035316;28;20495;-76
2022/01/07 01:47:03;;;;;;;5.72;3.78;;;;;;;4.63;63.25;101858.16;5035449;28;20500;-72
2022/01/07 01:49:29;;;;;;;4.05;3.05;;;;;;;4.63;63.25;101862.50;5034292;28;20107;-75
2022/01/07 01:51:56;;;;;;;5.60;3.10;;;;;;;4.62;63.27;101863.38;5035122;28;20095;-67
2022/01/07 01:54:23;;;;;;;5.28;3.10;;;;;;;4.60;63.49;101858.19;5035398;28;20052;-68
2022/01/07 01:56:49;;;;;;;4.65;2.80;;;;;;;4.57;63.71;101863.44;5035025;28;20451;-67
2022/01/07 01:59:24;;;;;;;6.03;3.20;;;;;;;4.56;63.49;101861.72;5035246;28;20046;-68
2022/01/07 02:01:51;;;;;;;4.38;3.40;;;;;;;4.54;63.50;101859.13;5035005;28;20446;-75
2022/01/07 02:04:18;;;;;;;4.35;3.25;;;;;;;4.49;63.59;101858.34;5035212;28;20128;-75
2022/01/07 02:06:45;;;;;;;4.20;3.20;;;;;;;4.46;63.79;101860.13;5033616;28;20046;-67
2022/01/07 02:09:12;;;;;;;4.03;2.92;;;;;;;4.44;63.64;101859.28;5034828;28;20495;-74
2022/01/07 02:11:39;;;;;;;4.88;3.35;;;;;;;4.41;63.83;101862.78;5034984;28;20562;-75
2022/01/07 02:14:06;;;;;;;5.97;3.60;;;;;;;4.39;63.78;101869.72;5034681;28;20041;-76
2022/01/07 02:16:32;;;;;;;4.53;3.28;;;;;;;4.34;63.91;101864.59;5034984;28;20099;-67
2022/01/07 02:18:59;;;;;;;4.43;3.10;;;;;;;4.34;63.79;101863.72;5034590;28;20454;-76
2022/01/07 02:21:26;;;;;;;5.57;3.50;;;;;;;4.32;63.93;101863.75;5033878;28;20057;-70
2022/01/07 02:23:53;;;;;;;4.85;3.22;;;;;;;4.35;63.86;101857.66;5033997;28;20487;-67
2022/01/07 02:26:19;;;;;;;3.72;2.80;;;;;;;4.33;63.94;101857.69;5034559;28;20495;-68
2022/01/07 02:28:49;;;;;;;5.43;3.30;;;;;;;4.36;63.90;101851.59;5034644;28;20099;-75
2022/01/07 02:31:17;;;;;;;3.97;2.80;;;;;;;4.38;64.01;101849.81;5034554;28;20068;-75
2022/01/07 02:33:45;;;;;;;4.13;3.22;;;;;;;4.40;63.98;101851.50;5034615;28;20407;-75
2022/01/07 02:36:13;;;;;;;5.03;3.60;;;;;;;4.40;64.03;101848.91;5034077;28;20099;-76
2022/01/07 02:38:39;;;;;;;3.70;2.75;;;;;;;4.45;63.93;101848.03;5034324;28;20077;-75
2022/01/07 02:41:06;;;;;;;4.20;3.20;;;;;;;4.47;63.87;101852.31;5032698;28;20053;-72
2022/01/07 02:43:33;;;;;;;4.22;2.92;;;;;;;4.48;63.92;101848.84;5034635;28;20046;-76
2022/01/07 02:46:00;;;;;;;4.43;3.47;;;;;;;4.51;63.68;101848.78;5034404;28;20056;-76
2022/01/07 02:48:26;;;;;;;5.57;3.45;;;;;;;4.54;63.69;101851.34;5034326;28;20091;-76
2022/01/07 02:50:53;;;;;;;4.82;3.15;;;;;;;4.56;63.54;101849.59;5034044;28;20100;-76
2022/01/07 02:53:20;;;;;;;5.20;3.25;;;;;;;4.61;63.59;101849.53;5034186;28;20045;-76
2022/01/07 02:55:46;;;;;;;3.08;2.63;;;;;;;4.64;63.33;101848.63;5034078;28;20049;-76
2022/01/07 02:58:13;;;;;;;3.85;3.03;;;;;;;4.65;63.26;101846.00;5032032;28;20504;-73
2022/01/07 03:00:40;;;;;;;4.57;2.83;;;;;;;4.68;63.08;101842.50;5034145;28;20081;-76
2022/01/07 03:03:07;;;;;;;3.97;2.97;;;;;;;4.65;62.99;101846.00;5033932;28;20045;-76
2022/01/07 03:05:34;;;;;;;3.47;2.88;;;;;;;4.69;62.84;101846.81;5019811;28;20556;-68
2022/01/07 03:08:01;;;;;;;4.30;3.08;;;;;;;4.68;62.94;101851.13;5033889;28;20049;-76
2022/01/07 03:10:32;;;;;;;3.80;3.13;;;;;;;4.73;62.77;101845.88;5033798;28;20045;-72
2022/01/07 03:13:00;;;;;;;3.83;2.72;;;;;;;4.74;62.61;101852.81;5032780;28;20107;-75
2022/01/07 03:15:28;;;;;;;4.43;2.72;;;;;;;4.76;62.52;101850.19;5033751;28;20045;-76
2022/01/07 03:17:54;;;;;;;4.95;2.90;;;;;;;4.71;62.84;101848.50;5034348;28;20120;-73
2022/01/07 03:20:21;;;;;;;5.55;3.13;;;;;;;4.70;62.78;101849.38;5036677;28;20049;-70
2022/01/07 03:22:49;;;;;;;3.88;2.72;;;;;;;4.70;62.95;101840.75;5036368;28;20438;-75
2022/01/07 03:25:17;;;;;;;3.92;3.03;;;;;;;4.71;62.86;101848.50;5036564;28;20071;-74
2022/01/07 03:27:45;;;;;;;4.35;2.83;;;;;;;4.68;62.69;101845.94;5035105;28;20050;-74
2022/01/07 03:30:15;;;;;;;4.28;2.63;;;;;;;4.68;63.00;101851.13;5035189;28;20053;-75
2022/01/07 03:32:42;;;;;;;2.83;2.15;;;;;;;4.69;62.97;101846.81;5035113;28;20050;-71
2022/01/07 03:35:11;;;;;;;4.05;3.17;;;;;;;4.66;62.89;101846.84;5035134;28;20087;-75
2022/01/07 03:37:39;;;;;;;4.30;2.65;;;;;;;4.65;63.07;101848.59;5034831;28;20042;-68
2022/01/07 03:40:07;;;;;;;4.13;2.80;;;;;;;4.63;63.14;101847.75;5033204;28;20061;-76
2022/01/07 03:42:34;;;;;;;4.15;2.80;;;;;;;4.65;63.03;101847.75;5033303;28;20492;-75
2022/01/07 03:45:01;;;;;;;4.15;2.95;;;;;;;4.64;62.94;101844.28;5032140;28;20037;-67
2022/01/07 03:47:28;;;;;;;3.53;2.85;;;;;;;4.64;62.76;101846.88;5033364;28;20107;-75
2022/01/07 03:49:54;;;;;;;4.15;2.63;;;;;;;4.67;62.86;101848.56;5032686;28;20107;-73
2022/01/07 03:52:21;;;;;;;4.80;2.75;;;;;;;4.63;62.92;101847.75;5033214;28;20492;-76
2022/01/07 03:54:50;;;;;;;6.68;3.80;;;;;;;4.64;62.79;101843.44;5032708;28;20042;-68
2022/01/07 03:57:20;;;;;;;8.60;4.28;;;;;;;4.64;62.70;101841.66;5032981;28;20049;-68
2022/01/07 03:59:47;;;;;;;8.18;4.10;;;;;;;4.65;62.75;101837.34;5032667;28;20050;-77
2022/01/07 04:02:14;;;;;;;6.53;4.00;;;;;;;4.63;62.59;101834.75;5030334;28;20538;-75
2022/01/07 04:04:41;;;;;;;5.18;3.38;;;;;;;4.62;62.52;101837.38;5028878;28;20052;-74
2022/01/07 04:07:07;;;;;;;4.95;3.53;;;;;;;4.59;62.73;101840.88;5029457;28;20408;-70
2022/01/07 04:09:34;;;;;;;5.43;3.42;;;;;;;4.56;62.71;101846.97;5029630;28;20095;-70
2022/01/07 04:12:01;;;;;;;3.92;3.03;;;;;;;4.54;62.95;101850.47;5029302;28;20050;-68
2022/01/07 04:14:28;;;;;;;5.25;3.38;;;;;;;4.51;62.69;101841.00;5029394;28;20049;-68
2022/01/07 04:16:55;;;;;;;5.93;3.65;;;;;;;4.48;63.05;101846.25;5029373;28;20045;-76
2022/01/07 04:19:22;;;;;;;11.25;4.07;;;;;;;4.44;63.13;101849.75;5027955;28;20052;-76
2022/01/07 04:21:49;;;;;;;10.38;4.45;;;;;;;4.40;63.29;101845.47;5029265;28;20115;-76
2022/01/07 04:24:17;;;;;;;11.25;4.22;;;;;;;4.35;63.29;101845.50;5029124;28;20636;-67
2022/01/07 04:26:44;;;;;;;11.10;4.20;;;;;;;4.28;63.28;101850.81;5029146;28;20054;-67
2022/01/07 04:29:11;;;;;;;7.63;3.92;;;;;;;4.23;63.48;101845.69;5028864;28;20492;-67
2022/01/07 04:31:38;;;;;;;6.72;4.10;;;;;;;4.17;63.20;101851.81;5029316;28;20041;-71
2022/01/07 04:34:05;;;;;;;6.15;3.55;;;;;;;4.13;63.01;101851.88;5029076;28;20045;-67
2022/01/07 04:36:32;;;;;;;7.43;3.05;;;;;;;4.04;63.12;101845.91;5027896;28;20561;-73
2022/01/07 04:38:58;;;;;;;9.77;2.97;;;;;;;4.00;62.98;101857.22;5028960;28;20566;-75
2022/01/07 04:41:25;;;;;;;6.90;3.83;;;;;;;3.98;62.92;101853.75;5028649;28;20048;-71
2022/01/07 04:43:52;;;;;;;6.45;3.10;;;;;;;3.95;62.83;101856.41;5028228;28;20041;-74
2022/01/07 04:46:18;;;;;;;4.05;3.17;;;;;;;3.91;62.70;101862.47;5029021;28;20052;-75
2022/01/07 04:48:45;;;;;;;5.97;3.17;;;;;;;3.88;62.70;101863.38;5029016;28;20041;-75
2022/01/07 04:51:12;;;;;;;6.45;3.13;;;;;;;3.84;62.61;101861.69;5028722;28;20103;-75
2022/01/07 04:53:39;;;;;;;7.30;3.92;;;;;;;3.84;62.68;101866.03;5027748;28;20546;-68
2022/01/07 04:56:05;;;;;;;6.25;3.58;;;;;;;3.83;62.59;101853.94;5028786;28;20056;-67
2022/01/07 04:58:32;;;;;;;13.98;3.42;;;;;;;3.81;62.58;101860.88;5028786;28;20047;-69
2022/01/07 05:00:59;;;;;;;6.97;3.15;;;;;;;3.79;62.70;101865.22;5028512;28;20491;-75
2022/01/07 05:03:25;;;;;;;8.15;3.30;;;;;;;3.76;62.76;101859.19;5028449;28;20561;-67
2022/01/07 05:06:02;;;;;;;8.43;3.88;;;;;;;3.78;62.73;101860.91;5028527;28;20053;-75
2022/01/07 05:08:29;;;;;;;6.15;3.50;;;;;;;3.78;62.80;101859.16;5028660;28;20046;-76
2022/01/07 05:10:56;;;;;;;5.45;3.03;;;;;;;3.76;62.86;101873.91;5027454;28;20041;-76
2022/01/07 05:13:22;;;;;;;8.30;2.85;;;;;;;3.75;62.98;101860.06;5028848;28;20046;-76
2022/01/07 05:15:49;;;;;;;3.88;2.83;;;;;;;3.73;63.09;101868.72;5028431;28;20076;-76
2022/01/07 05:18:15;;;;;;;4.85;2.95;;;;;;;3.71;63.10;101873.94;5028633;28;20045;-68
2022/01/07 05:20:42;;;;;;;7.57;2.67;;;;;;;3.68;63.15;101866.19;5028445;28;20520;-68
2022/01/07 05:23:08;;;;;;;6.55;2.60;;;;;;;3.69;62.99;101867.06;5028666;28;20049;-72
2022/01/07 05:25:35;;;;;;;3.50;2.47;;;;;;;3.70;63.32;101872.22;5028710;28;20084;-67
2022/01/07 05:28:02;;;;;;;5.07;2.72;;;;;;;3.68;63.18;101866.19;5027484;28;20057;-75
2022/01/07 05:30:29;;;;;;;4.15;2.60;;;;;;;3.69;63.39;101861.84;5028180;28;20046;-75
2022/01/07 05:32:55;;;;;;;7.68;3.20;;;;;;;3.70;63.25;101859.25;5028259;28;20041;-67
2022/01/07 05:35:25;;;;;;;4.38;2.42;;;;;;;3.68;63.09;101857.53;5028048;28;20504;-67
2022/01/07 05:37:52;;;;;;;4.18;2.63;;;;;;;3.67;63.10;101859.28;5028251;28;20057;-68
2022/01/07 05:40:19;;;;;;;4.40;2.63;;;;;;;3.68;63.35;101858.41;5028123;28;20566;-67
2022/01/07 05:42:46;;;;;;;3.55;2.72;;;;;;;3.66;63.41;101856.72;5028224;28;20045;-68
2022/01/07 05:45:12;;;;;;;4.07;2.25;;;;;;;3.65;63.47;101860.19;5027371;28;20085;-75
2022/01/07 05:47:39;;;;;;;3.90;2.50;;;;;;;3.65;63.52;101860.19;5028273;28;20045;-68
2022/01/07 05:50:06;;;;;;;4.63;2.45;;;;;;;3.70;63.26;101858.41;5028353;28;20053;-68
2022/01/07 05:52:33;;;;;;;3.42;2.42;;;;;;;3.79;62.80;101860.03;5028582;28;20123;-75
2022/01/07 05:55:00;;;;;;;3.00;1.90;;;;;;;3.91;62.45;101852.09;5030081;28;20065;-75
2022/01/07 05:57:27;;;;;;;2.60;1.73;;;;;;;3.96;61.79;101855.53;5031799;28;20526;-68
2022/01/07 05:59:54;;;;;;;2.08;1.85;;;;;;;4.03;61.27;101864.94;5031842;28;20041;-67
2022/01/07 06:02:21;;;;;;;2.67;1.70;;;;;;;4.09;60.80;101862.28;5030952;28;20107;-67
2022/01/07 06:04:48;;;;;;;2.95;1.63;;;;;;;4.12;60.73;101863.16;5031359;28;20042;-67
2022/01/07 06:07:20;;;;;;;5.43;2.05;;;;;;;4.15;60.35;101860.50;5031656;28;20096;-76
2022/01/07 06:09:56;;;;;;;2.30;1.52;;;;;;;4.19;59.90;101860.44;5031364;28;20046;-74
2022/01/07 06:12:24;;;;;;;3.15;1.70;;;;;;;4.22;59.62;101857.81;5031156;28;20053;-67
2022/01/07 06:14:51;;;;;;;2.67;1.40;;;;;;;4.25;59.30;101859.50;5031525;28;20064;-66
2022/01/07 06:17:18;;;;;;;2.70;2.00;;;;;;;4.28;58.87;101867.28;5030896;28;20049;-74
2022/01/07 06:19:45;;;;;;;4.93;1.92;;;;;;;4.29;58.77;101866.41;5031544;28;20103;-68
2022/01/07 06:22:12;;;;;;;2.92;2.05;;;;;;;4.28;58.30;101872.47;5031334;28;20511;-75
2022/01/07 06:24:39;;;;;;;2.42;1.52;;;;;;;4.35;58.00;101868.06;5031304;28;20099;-74
2022/01/07 06:27:05;;;;;;;3.88;1.80;;;;;;;4.36;57.67;101864.59;5031568;28;20050;-75
2022/01/07 06:29:32;;;;;;;2.70;1.88;;;;;;;4.36;57.68;101867.19;5031673;28;20045;-75
2022/01/07 06:31:59;;;;;;;3.72;1.70;;;;;;;4.36;57.65;101869.78;5031351;28;20064;-76
2022/01/07 06:34:26;;;;;;;2.28;2.00;;;;;;;4.35;57.35;101876.69;5031216;28;20096;-68
2022/01/07 06:36:53;;;;;;;5.45;2.65;;;;;;;4.35;57.50;101881.06;5029896;28;20037;-76
2022/01/07 06:39:20;;;;;;;5.80;3.58;;;;;;;4.32;57.45;101878.50;5031220;28;20053;-72
2022/01/07 06:41:47;;;;;;;5.43;3.47;;;;;;;4.33;57.31;101875.88;5017170;28;20091;-68
2022/01/07 06:44:14;;;;;;;4.72;3.10;;;;;;;4.33;57.30;101880.19;5031164;28;20099;-69
2022/01/07 06:46:41;;;;;;;3.95;2.85;;;;;;;4.33;57.30;101881.06;5030845;28;20491;-76
2022/01/07 06:49:08;;;;;;;4.63;2.70;;;;;;;4.33;57.21;101878.47;5030789;28;20572;-67
2022/01/07 06:51:35;;;;;;;3.88;2.70;;;;;;;4.32;56.99;101879.34;5030874;28;20058;-68
2022/01/07 06:54:02;;;;;;;4.32;2.30;;;;;;;4.34;56.84;101877.59;5030231;28;20049;-76
2022/01/07 06:56:29;;;;;;;4.20;2.03;;;;;;;4.31;56.85;101881.97;5030837;28;20558;-76
2022/01/07 06:58:55;;;;;;;3.28;2.08;;;;;;;4.25;56.95;101877.69;5030633;28;20065;-68
2022/01/07 07:01:22;;;;;;;2.75;1.50;;;;;;;4.23;57.03;101882.06;5030891;28;20091;-72
2022/01/07 07:03:49;;;;;;;4.97;1.92;;;;;;;4.22;57.30;101882.94;5030699;28;20231;-75
2022/01/07 07:06:15;;;;;;;6.82;3.63;;;;;;;4.18;57.29;101882.13;5030002;28;20045;-72
2022/01/07 07:08:42;;;;;;;11.02;5.90;;;;;;;4.15;57.87;101883.88;5028588;28;20080;-71
2022/01/07 07:11:08;;;;;;;10.98;5.63;;;;;;;4.11;57.94;101879.59;5030421;28;20050;-76
2022/01/07 07:13:35;;;;;;;10.07;5.47;;;;;;;4.09;58.23;101884.81;5030624;28;20049;-67
2022/01/07 07:16:01;;;;;;;9.95;5.40;;;;;;;4.13;58.26;101888.25;5030229;28;20087;-67
2022/01/07 07:18:28;;;;;;;15.02;7.75;;;;;;;4.21;58.31;101897.66;5030464;28;20084;-67
2022/01/07 07:20:55;;;;;;;17.13;9.05;;;;;;;4.25;58.21;101894.16;5030347;28;20053;-67
2022/01/07 07:23:21;;;;;;;19.92;10.07;;;;;;;4.33;57.96;101907.06;5030581;28;20045;-67
2022/01/07 07:25:48;;;;;;;18.08;9.32;;;;;;;4.42;57.83;101908.69;5028980;28;20111;-76
2022/01/07 07:28:15;;;;;;;14.65;8.45;;;;;;;4.56;57.66;101904.16;5030203;28;20049;-72
2022/01/07 07:30:42;;;;;;;16.38;9.63;;;;;;;4.70;57.38;101908.34;5030386;28;20050;-68
2022/01/07 07:38:38;;;;;;;9.63;4.38;;;;;;;4.90;57.13;101905.44;5018381;28;20056;-68
2022/01/07 07:41:10;;;;;;;6.45;3.30;;;;;;;4.87;57.02;101911.56;5028599;28;20053;-67
2022/01/07 07:43:38;;;;;;;5.63;2.28;;;;;;;4.87;56.52;101915.91;5030296;28;20046;-71
2022/01/07 07:46:05;;;;;;;6.15;2.75;;;;;;;4.88;56.75;101915.03;5029910;28;20085;-67
2022/01/07 07:48:33;;;;;;;6.68;3.13;;;;;;;4.88;56.73;101912.44;5030170;28;20104;-73
2022/01/07 07:50:59;;;;;;;8.38;3.10;;;;;;;4.87;56.56;101916.75;5029613;28;20045;-75
2022/01/07 07:53:26;;;;;;;4.20;2.65;;;;;;;4.87;56.56;101916.75;5029507;28;20049;-76
2022/01/07 07:55:53;;;;;;;4.65;2.05;;;;;;;4.88;56.49;101915.03;5029647;28;20045;-74
2022/01/07 07:58:21;;;;;;;6.25;2.72;;;;;;;4.89;56.34;101916.75;5029714;28;20450;-77
2022/01/07 08:00:49;;;;;;;6.20;2.97;;;;;;;4.90;56.61;101923.66;5029186;28;20048;-68
2022/01/07 08:03:16;;;;;;;6.05;2.65;;;;;;;4.95;56.55;101927.06;5029510;28;20060;-75
2022/01/07 08:05:43;;;;;;;6.40;2.80;;;;;;;5.01;56.50;101920.91;5029440;28;20041;-68
2022/01/07 08:08:09;;;;;;;6.95;3.10;;;;;;;5.03;56.34;101925.22;5029501;28;20049;-67
2022/01/07 08:10:44;;;;;;;4.68;2.95;;;;;;;5.13;56.40;101917.25;5029320;28;20076;-70
2022/01/07 08:18:24;;;;;;;9.77;3.40;;;;;;;5.44;55.96;101911.59;5027730;28;20050;-73
2022/01/07 08:20:51;;;;;;;6.15;3.67;;;;;;;5.62;55.90;101907.81;5029134;28;20056;-76
2022/01/07 08:23:19;;;;;;;7.18;4.30;;;;;;;5.78;55.69;101906.66;5029245;28;20080;-76
2022/01/07 08:25:46;;;;;;;11.80;5.82;;;;;;;6.13;54.81;101907.81;5028870;28;20116;-76
2022/01/07 08:28:14;;;;;;;10.30;5.53;;;;;;;6.59;53.67;101895.59;5029392;28;20103;-73
2022/01/07 08:36:14;;;;;;;13.77;5.72;;;;;;;7.88;50.94;101884.69;5028875;28;20053;-76
2022/01/07 08:38:41;;;;;;;10.35;5.22;;;;;;;8.16;50.56;101880.41;5028925;28;20049;-68
2022/01/07 08:41:08;;;;;;;10.20;5.25;;;;;;;8.45;50.01;101881.31;5028516;28;20124;-69
2022/01/07 08:43:34;;;;;;;8.70;5.07;;;;;;;8.78;49.32;101880.38;5029072;28;20103;-75
2022/01/07 08:46:04;;;;;;;9.10;4.82;;;;;;;9.05;49.05;101877.81;5029039;28;20053;-68
2022/01/07 08:48:32;;;;;;;9.07;4.47;;;;;;;9.29;48.57;101881.38;5028948;28;20076;-68
2022/01/07 08:50:59;;;;;;;11.30;4.50;;;;;;;9.55;48.04;101874.41;5027750;28;20099;-76
2022/01/07 08:53:26;;;;;;;6.90;3.67;;;;;;;9.84;47.62;101876.03;5028697;28;20053;-72
2022/01/07 08:55:53;;;;;;;6.63;3.72;;;;;;;10.14;47.01;101881.09;5028871;28;20096;-76
2022/01/07 08:58:19;;;;;;;8.85;4.25;;;;;;;10.47;46.07;101874.69;5028933;28;20045;-67
2022/01/07 09:00:46;;;;;;;6.30;3.60;;;;;;;10.79;45.73;101870.78;5028809;28;20045;-76
2022/01/07 09:03:13;;;;;;;4.15;2.50;;;;;;;10.94;45.19;101874.59;5028513;28;20491;-72
2022/01/07 09:05:39;;;;;;;3.70;1.70;;;;;;;11.08;44.51;101880.16;5027713;28;20075;-77
2022/01/07 09:08:09;;;;;;;3.85;2.33;;;;;;;10.28;45.86;101878.84;5028562;28;20050;-68
2022/01/07 09:10:36;;;;;;;3.78;2.05;;;;;;;9.64;47.02;101882.81;5028501;28;20064;-73
2022/01/07 09:13:03;;;;;;;2.83;1.42;;;;;;;9.27;47.18;101885.84;5028731;28;20058;-76
2022/01/07 09:15:30;;;;;;;2.65;1.27;;;;;;;9.01;46.98;101884.06;5029009;28;20045;-77
2022/01/07 09:17:56;;;;;;;2.75;1.38;;;;;;;8.87;47.07;101884.47;5028137;28;20037;-70
2022/01/07 09:20:23;;;;;;;2.80;1.30;;;;;;;8.74;47.03;101882.25;5027986;28;20095;-68
2022/01/07 09:22:50;;;;;;;1.63;1.02;;;;;;;8.65;47.01;101883.38;5026625;28;20111;-70
2022/01/07 09:25:17;;;;;;;5.15;2.08;;;;;;;8.53;46.78;101883.72;5025328;28;20088;-71
2022/01/07 09:27:43;;;;;;;8.50;3.42;;;;;;;8.45;46.82;101888.31;5027732;28;20443;-68
2022/01/07 09:30:11;;;;;;;3.50;1.90;;;;;;;8.40;46.92;101887.59;5030715;28;20404;-71
2022/01/07 09:32:39;;;;;;;6.82;3.20;;;;;;;8.34;46.63;101881.63;5031905;28;20046;-69
2022/01/07 09:35:07;;;;;;;6.90;2.22;;;;;;;8.29;46.58;101882.66;5031435;28;20107;-67
2022/01/07 09:37:35;;;;;;;2.90;1.50;;;;;;;8.21;46.56;101887.25;5032246;28;20042;-68
2022/01/07 09:40:03;;;;;;;3.38;1.90;;;;;;;8.11;46.70;101891.88;5030398;28;20053;-68
2022/01/07 09:42:29;;;;;;;2.05;1.50;;;;;;;8.06;46.53;101881.53;5032467;28;20079;-71
2022/01/07 09:44:57;;;;;;;3.55;1.77;;;;;;;8.04;46.65;101882.50;5031961;28;20042;-71
2022/01/07 09:47:24;;;;;;;3.22;1.98;;;;;;;8.15;46.85;101885.66;5031944;28;20542;-69
2022/01/07 09:49:50;;;;;;;1.85;1.23;;;;;;;8.08;47.68;101873.69;5031902;28;20095;-71
2022/01/07 09:52:17;;;;;;;3.53;1.90;;;;;;;8.01;48.08;101871.22;5033072;28;20112;-72
2022/01/07 09:54:43;;;;;;;3.08;1.92;;;;;;;7.96;47.85;101870.50;5032425;28;20076;-69
2022/01/07 09:57:10;;;;;;;2.53;1.42;;;;;;;7.97;47.71;101858.28;5031067;28;20541;-71
2022/01/07 09:59:37;;;;;;;3.33;1.98;;;;;;;8.00;47.36;101855.59;5032267;28;20050;-67
2022/01/07 10:02:09;;;;;;;2.42;1.70;;;;;;;8.05;47.07;101858.94;5031834;28;20135;-67
2022/01/07 10:04:41;;;;;;;4.13;1.77;;;;;;;8.07;46.78;101854.50;5031826;28;20072;-73
2022/01/07 10:07:24;;;;;;;3.53;2.00;;;;;;;8.07;46.57;101848.44;5031213;28;20046;-68
2022/01/07 10:10:03;;;;;;;2.88;1.83;;;;;;;8.07;46.49;101840.59;5031107;28;20041;-71
2022/01/07 10:12:33;;;;;;;3.65;2.35;;;;;;;8.06;46.34;101838.88;5030222;28;20404;-67
2022/01/07 10:15:16;;;;;;;2.88;1.50;;;;;;;8.11;45.93;101840.47;5031325;28;20046;-69
2022/01/07 10:18:13;;;;;;;3.58;1.95;;;;;;;8.11;45.95;101830.00;5031028;28;20038;-68
2022/01/07 10:20:42;;;;;;;;;;;;;;;8.13;45.77;101828.19;5023287;28;20050;-67
2022/01/07 10:23:13;;;;;;;3.88;1.70;;;;;;;8.10;45.94;101823.06;5030805;28;19927;-68
2022/01/07 10:25:42;;;;;;;5.45;2.00;;;;;;;8.07;45.75;101823.13;5030989;28;20049;-67
2022/01/07 10:28:12;;;;;;;2.40;1.67;;;;;;;8.09;45.67;101815.28;5031162;28;20045;-68
2022/01/07 10:30:41;;;;;;;3.20;1.98;;;;;;;8.01;45.73;101824.19;5025182;28;20058;-67
2022/01/07 10:33:38;;;;;;;3.97;1.83;;;;;;;8.01;45.70;101818.06;5029853;28;20053;-68
2022/01/07 10:36:08;;;;;;;3.58;1.80;;;;;;;8.00;45.63;101808.56;5025514;28;20049;-68
2022/01/07 10:38:55;;;;;;;4.82;2.20;;;;;;;8.02;45.60;101806.72;5031263;28;20107;-68
2022/01/07 10:41:22;;;;;;;5.30;2.15;;;;;;;8.01;45.78;101811.13;5029894;28;20056;-68
2022/01/07 10:43:50;;;;;;;4.13;1.80;;;;;;;8.02;45.77;101796.28;5030069;28;20495;-68
2022/01/07 10:46:20;;;;;;;3.83;1.75;;;;;;;8.04;45.62;101793.59;5030694;28;20049;-67
2022/01/07 10:48:55;;;;;;;3.58;1.92;;;;;;;8.05;45.67;101790.97;5030257;28;20045;-68
2022/01/07 10:51:52;;;;;;;2.90;1.67;;;;;;;8.09;45.66;101786.53;5030438;28;20057;-67
2022/01/07 10:54:19;;;;;;;4.13;1.98;;;;;;;8.13;45.71;101778.53;5028090;28;20092;-69
2022/01/07 10:56:51;;;;;;;10.15;2.72;;;;;;;8.26;45.92;101770.31;5029152;28;20496;-65
2022/01/07 10:59:19;;;;;;;3.10;1.58;;;;;;;8.39;45.73;101763.78;5018920;28;20554;-67
2022/01/07 11:01:57;;;;;;;3.40;1.60;;;;;;;8.49;45.63;101764.41;5011450;28;20057;-68
2022/01/07 11:04:27;;;;;;;2.22;1.70;;;;;;;8.64;45.19;101756.06;5011356;28;20459;-67
2022/01/07 11:06:58;;;;;;;3.90;1.60;;;;;;;8.74;44.77;101740.06;5012848;28;20041;-67
2022/01/07 11:09:25;;;;;;;5.00;1.45;;;;;;;8.82;44.02;101744.16;5011188;28;20125;-67
2022/01/07 11:11:57;;;;;;;2.45;1.23;;;;;;;9.03;43.23;101733.00;5009081;28;20038;-68
2022/01/07 11:14:26;;;;;;;3.10;1.73;;;;;;;9.26;42.39;101724.34;5013493;28;20463;-67
2022/01/07 11:16:55;;;;;;;3.35;1.20;;;;;;;9.40;41.97;101729.09;5010748;28;20409;-67
2022/01/07 11:19:26;;;;;;;2.55;1.65;;;;;;;9.36;41.96;101724.88;5012173;28;20408;-68
2022/01/07 11:21:55;;;;;;;3.20;1.38;;;;;;;9.40;41.67;101716.84;5011833;28;20042;-69
2022/01/07 11:24:44;;;;;;;2.80;1.50;;;;;;;9.46;41.22;101711.38;5027001;28;20049;-70
2022/01/07 11:27:26;;;;;;;2.83;1.30;;;;;;;9.58;40.93;101714.47;5030050;28;20495;-68
2022/01/07 11:30:07;;;;;;;1.80;1.20;;;;;;;9.63;40.97;101707.28;5029863;28;20407;-68
2022/01/07 11:32:37;;;;;;;1.75;1.05;;;;;;;9.66;40.86;101707.16;5024470;28;20091;-67
2022/01/07 11:35:22;;;;;;;5.70;1.70;;;;;;;9.68;40.64;101705.34;5029492;28;20091;-68
2022/01/07 11:37:54;;;;;;;3.33;1.58;;;;;;;9.62;40.69;101706.47;5027892;28;20046;-68
2022/01/07 11:40:44;;;;;;;2.95;1.45;;;;;;;9.72;40.53;101700.84;5024136;28;20054;-68
2022/01/07 11:43:13;;;;;;;2.75;1.30;;;;;;;9.49;41.04;101702.56;5029327;28;20050;-68
2022/01/07 11:45:43;;;;;;;1.73;1.13;;;;;;;9.38;41.18;101702.94;5021933;28;20049;-69
2022/01/07 11:48:14;;;;;;;3.88;2.25;;;;;;;9.37;41.19;101697.75;5029431;28;20052;-68
2022/01/07 11:50:55;;;;;;;2.67;1.40;;;;;;;9.46;40.86;101700.06;5028685;28;20041;-69
2022/01/07 11:53:41;;;;;;;5.82;2.55;;;;;;;9.51;40.80;101692.03;5029212;28;20049;-69